createdAt,value
2024-04-18T00:00:16.306Z,75.2
2024-04-18T00:01:15.946Z,75.2
2024-04-18T00:02:15.905Z,75.2
2024-04-18T00:03:15.966Z,75.2
2024-04-18T00:04:16.005Z,75.2
2024-04-18T00:05:15.901Z,75.3
2024-04-18T00:06:15.937Z,75.2
2024-04-18T00:07:15.949Z,75.2
2024-04-18T00:08:18.943Z,75.2
2024-04-18T00:09:15.878Z,75.2
2024-04-18T00:10:15.890Z,75.2
2024-04-18T00:11:15.904Z,75.2
2024-04-18T00:12:15.866Z,75.2
2024-04-18T00:13:15.801Z,75.2
2024-04-18T00:14:15.834Z,75.3
2024-04-18T00:15:15.857Z,75.3
2024-04-18T00:16:15.940Z,75.3
2024-04-18T00:17:15.869Z,75.3
2024-04-18T00:18:16.017Z,75.3
2024-04-18T00:19:15.872Z,75.3
2024-04-18T00:20:15.918Z,75.3
2024-04-18T00:21:15.856Z,75.3
2024-04-18T00:22:15.860Z,75.3
2024-04-18T00:23:15.840Z,75.3
2024-04-18T00:24:15.887Z,75.2
2024-04-18T00:25:15.911Z,75.2
2024-04-18T00:26:15.852Z,75.1
2024-04-18T00:27:15.878Z,75.0
2024-04-18T00:28:15.811Z,75.1
2024-04-18T00:29:18.799Z,75.1
2024-04-18T00:30:15.998Z,75.1
2024-04-18T00:31:15.831Z,75.1
2024-04-18T00:32:15.863Z,75.1
2024-04-18T00:33:15.836Z,75.0
2024-04-18T00:34:16.031Z,75.0
2024-04-18T00:35:15.822Z,75.1
2024-04-18T00:36:15.801Z,75.1
2024-04-18T00:37:15.857Z,75.1
2024-04-18T00:38:15.807Z,75.0
2024-04-18T00:39:15.870Z,75.0
2024-04-18T00:40:15.810Z,75.0
2024-04-18T00:41:16.316Z,75.0
2024-04-18T00:42:15.846Z,74.9
2024-04-18T00:43:15.751Z,74.9
2024-04-18T00:44:15.814Z,75.0
2024-04-18T00:45:15.878Z,75.0
2024-04-18T00:46:15.843Z,75.1
2024-04-18T00:47:15.826Z,75.1
2024-04-18T00:48:15.958Z,75.1
2024-04-18T00:49:15.885Z,75.1
2024-04-18T00:50:18.912Z,75.1
2024-04-18T00:51:15.818Z,75.0
2024-04-18T00:52:16.036Z,75.0
2024-04-18T00:53:15.781Z,75.0
2024-04-18T00:54:15.856Z,75.0
2024-04-18T00:55:15.776Z,75.0
2024-04-18T00:56:18.400Z,74.9
2024-04-18T00:57:15.797Z,75.0
2024-04-18T00:58:16.075Z,74.9
2024-04-18T00:59:15.763Z,75.0
2024-04-18T01:00:15.770Z,75.0
2024-04-18T01:01:15.846Z,75.0
2024-04-18T01:02:15.895Z,75.0
2024-04-18T01:03:15.991Z,75.1
2024-04-18T01:04:16.066Z,75.1
2024-04-18T01:05:15.856Z,75.1
2024-04-18T01:06:15.805Z,75.1
2024-04-18T01:07:15.819Z,75.1
2024-04-18T01:08:15.758Z,75.2
2024-04-18T01:09:15.786Z,75.2
2024-04-18T01:10:16.109Z,75.1
2024-04-18T01:11:18.987Z,75.1
2024-04-18T01:12:15.758Z,75.1
2024-04-18T01:13:15.730Z,75.1
2024-04-18T01:14:15.853Z,75.1
2024-04-18T01:15:15.812Z,75.1
2024-04-18T01:16:15.763Z,75.1
2024-04-18T01:17:15.780Z,75.0
2024-04-18T01:18:15.902Z,75.0
2024-04-18T01:19:15.716Z,74.9
2024-04-18T01:20:15.784Z,75.0
2024-04-18T01:21:15.961Z,75.0
2024-04-18T01:22:15.705Z,75.0
2024-04-18T01:23:15.695Z,75.0
2024-04-18T01:24:15.715Z,75.0
2024-04-18T01:25:15.929Z,75.0
2024-04-18T01:26:15.757Z,75.0
2024-04-18T01:27:15.763Z,75.1
2024-04-18T01:28:15.693Z,75.1
2024-04-18T01:29:15.811Z,75.0
2024-04-18T01:30:15.732Z,75.0
2024-04-18T01:31:16.404Z,75.0
2024-04-18T01:32:15.811Z,75.0
2024-04-18T01:33:15.921Z,75.0
2024-04-18T01:34:15.782Z,75.1
2024-04-18T01:35:15.701Z,75.1
2024-04-18T01:36:15.977Z,75.1
2024-04-18T01:37:15.759Z,75.1
2024-04-18T01:38:15.652Z,75.1
2024-04-18T01:39:15.706Z,75.0
2024-04-18T01:40:15.694Z,75.1
2024-04-18T01:41:15.738Z,75.1
2024-04-18T01:42:15.691Z,75.1
2024-04-18T01:43:15.658Z,75.1
2024-04-18T01:44:15.649Z,75.1
2024-04-18T01:45:15.671Z,75.1
2024-04-18T01:46:15.679Z,75.1
2024-04-18T01:47:15.833Z,75.1
2024-04-18T01:48:15.923Z,75.1
2024-04-18T01:49:15.829Z,75.1
2024-04-18T01:50:15.654Z,75.1
2024-04-18T01:51:15.668Z,75.1
2024-04-18T01:52:16.421Z,75.1
2024-04-18T01:53:15.681Z,75.0
2024-04-18T01:54:15.661Z,75.1
2024-04-18T01:55:15.631Z,75.1
2024-04-18T01:56:15.649Z,75.1
2024-04-18T01:57:15.701Z,75.0
2024-04-18T01:58:15.789Z,75.0
2024-04-18T01:59:15.618Z,75.1
2024-04-18T02:00:15.649Z,75.1
2024-04-18T02:01:15.820Z,75.1
2024-04-18T02:02:15.636Z,75.1
2024-04-18T02:03:15.733Z,75.1
2024-04-18T02:04:15.650Z,75.1
2024-04-18T02:05:15.648Z,75.1
2024-04-18T02:06:15.688Z,75.1
2024-04-18T02:07:15.608Z,75.1
2024-04-18T02:08:15.662Z,75.1
2024-04-18T02:09:15.814Z,75.1
2024-04-18T02:10:15.657Z,75.1
2024-04-18T02:11:15.633Z,75.1
2024-04-18T02:12:15.640Z,75.1
2024-04-18T02:13:16.561Z,75.1
2024-04-18T02:14:15.642Z,75.1
2024-04-18T02:15:15.639Z,75.1
2024-04-18T02:16:15.614Z,75.1
2024-04-18T02:17:15.680Z,75.2
2024-04-18T02:18:15.759Z,75.2
2024-04-18T02:19:15.635Z,75.2
2024-04-18T02:20:15.760Z,75.2
2024-04-18T02:21:15.662Z,75.2
2024-04-18T02:22:15.599Z,75.1
2024-04-18T02:23:15.591Z,75.1
2024-04-18T02:24:15.630Z,75.1
2024-04-18T02:25:15.582Z,75.2
2024-04-18T02:26:15.612Z,75.3
2024-04-18T02:27:15.632Z,75.3
2024-04-18T02:28:15.586Z,75.3
2024-04-18T02:29:15.618Z,75.3
2024-04-18T02:30:15.592Z,75.3
2024-04-18T02:31:15.671Z,75.4
2024-04-18T02:32:15.624Z,75.4
2024-04-18T02:33:15.637Z,75.4
2024-04-18T02:34:17.043Z,75.4
2024-04-18T02:35:15.608Z,75.4
2024-04-18T02:36:15.625Z,75.4
2024-04-18T02:37:15.584Z,75.4
2024-04-18T02:38:15.593Z,75.4
2024-04-18T02:39:15.611Z,75.5
2024-04-18T02:40:15.645Z,75.5
2024-04-18T02:41:15.632Z,75.5
2024-04-18T02:42:15.777Z,75.5
2024-04-18T02:43:15.551Z,75.5
2024-04-18T02:44:15.579Z,75.5
2024-04-18T02:45:15.669Z,75.5
2024-04-18T02:46:15.572Z,75.6
2024-04-18T02:47:15.599Z,75.6
2024-04-18T02:48:15.637Z,75.6
2024-04-18T02:49:15.551Z,75.6
2024-04-18T02:50:15.574Z,75.6
2024-04-18T02:51:15.611Z,75.6
2024-04-18T02:52:15.584Z,75.6
2024-04-18T02:53:15.699Z,75.6
2024-04-18T02:54:15.571Z,75.6
2024-04-18T02:55:17.240Z,75.6
2024-04-18T02:56:15.565Z,75.6
2024-04-18T02:57:15.621Z,75.6
2024-04-18T02:58:15.540Z,75.7
2024-04-18T02:59:15.548Z,75.7
2024-04-18T03:00:15.584Z,75.7
2024-04-18T03:01:15.655Z,75.7
2024-04-18T03:02:15.620Z,75.7
2024-04-18T03:03:15.583Z,75.7
2024-04-18T03:04:15.799Z,75.7
2024-04-18T03:05:15.546Z,75.6
2024-04-18T03:06:15.546Z,75.6
2024-04-18T03:07:15.538Z,75.6
2024-04-18T03:08:15.562Z,75.6
2024-04-18T03:09:15.568Z,75.6
2024-04-18T03:10:15.568Z,75.6
2024-04-18T03:11:15.603Z,75.6
2024-04-18T03:12:15.536Z,75.6
2024-04-18T03:13:15.566Z,75.5
2024-04-18T03:14:15.559Z,75.5
2024-04-18T03:15:15.786Z,75.5
2024-04-18T03:16:17.590Z,75.5
2024-04-18T03:17:15.596Z,75.5
2024-04-18T03:18:15.745Z,75.5
2024-04-18T03:19:15.523Z,75.5
2024-04-18T03:20:15.510Z,75.5
2024-04-18T03:21:15.605Z,75.5
2024-04-18T03:22:15.509Z,75.5
2024-04-18T03:23:15.499Z,75.5
2024-04-18T03:24:15.513Z,75.5
2024-04-18T03:25:15.500Z,75.5
2024-04-18T03:26:15.553Z,75.5
2024-04-18T03:27:15.524Z,75.6
2024-04-18T03:28:15.571Z,75.6
2024-04-18T03:29:15.471Z,75.6
2024-04-18T03:30:15.525Z,75.6
2024-04-18T03:31:15.515Z,75.7
2024-04-18T03:32:15.581Z,75.7
2024-04-18T03:33:15.582Z,75.6
2024-04-18T03:34:15.487Z,75.6
2024-04-18T03:35:15.502Z,75.7
2024-04-18T03:36:15.555Z,75.6
2024-04-18T03:37:18.207Z,75.6
2024-04-18T03:38:15.544Z,75.6
2024-04-18T03:39:15.488Z,75.6
2024-04-18T03:40:15.516Z,75.6
2024-04-18T03:41:15.486Z,75.6
2024-04-18T03:42:16.257Z,75.6
2024-04-18T03:43:16.206Z,75.6
2024-04-18T03:44:16.454Z,75.5
2024-04-18T03:45:15.543Z,75.5
2024-04-18T03:46:15.483Z,75.5
2024-04-18T03:47:15.503Z,75.5
2024-04-18T03:48:15.582Z,75.5
2024-04-18T03:49:15.496Z,75.5
2024-04-18T03:50:15.470Z,75.5
2024-04-18T03:51:15.518Z,75.5
2024-04-18T03:52:15.451Z,75.5
2024-04-18T03:53:15.498Z,75.5
2024-04-18T03:54:15.496Z,75.5
2024-04-18T03:55:15.520Z,75.5
2024-04-18T03:56:15.804Z,75.5
2024-04-18T03:57:15.463Z,75.5
2024-04-18T03:58:18.222Z,75.5
2024-04-18T03:59:15.425Z,75.6
2024-04-18T04:00:15.502Z,75.6
2024-04-18T04:01:15.606Z,75.6
2024-04-18T04:02:15.555Z,75.6
2024-04-18T04:03:15.533Z,75.5
2024-04-18T04:04:15.511Z,75.5
2024-04-18T04:05:15.428Z,75.6
2024-04-18T04:06:15.484Z,75.6
2024-04-18T04:07:15.590Z,75.5
2024-04-18T04:08:15.451Z,75.5
2024-04-18T04:09:15.527Z,75.5
2024-04-18T04:10:15.465Z,75.4
2024-04-18T04:11:15.521Z,75.4
2024-04-18T04:12:15.510Z,75.5
2024-04-18T04:13:15.490Z,75.5
2024-04-18T04:14:15.447Z,75.5
2024-04-18T04:15:15.508Z,75.5
2024-04-18T04:16:15.422Z,75.5
2024-04-18T04:17:15.442Z,75.6
2024-04-18T04:18:15.833Z,75.6
2024-04-18T04:19:18.752Z,75.6
2024-04-18T04:20:15.430Z,75.6
2024-04-18T04:21:15.492Z,75.6
2024-04-18T04:22:15.469Z,75.6
2024-04-18T04:23:15.432Z,75.6
2024-04-18T04:24:15.439Z,75.5
2024-04-18T04:25:15.438Z,75.5
2024-04-18T04:26:15.384Z,75.5
2024-04-18T04:27:15.443Z,75.5
2024-04-18T04:28:15.518Z,75.5
2024-04-18T04:29:15.403Z,75.5
2024-04-18T04:30:15.662Z,75.5
2024-04-18T04:31:15.412Z,75.6
2024-04-18T04:32:15.453Z,75.6
2024-04-18T04:33:15.401Z,75.6
2024-04-18T04:34:15.440Z,75.6
2024-04-18T04:35:16.079Z,75.6
2024-04-18T04:36:16.172Z,75.6
2024-04-18T04:37:16.162Z,75.6
2024-04-18T04:38:16.180Z,75.7
2024-04-18T04:39:16.520Z,75.7
2024-04-18T04:40:19.651Z,75.7
2024-04-18T04:41:15.368Z,75.6
2024-04-18T04:42:15.441Z,75.6
2024-04-18T04:43:15.390Z,75.6
2024-04-18T04:44:15.379Z,75.6
2024-04-18T04:45:15.388Z,75.7
2024-04-18T04:46:15.359Z,75.7
2024-04-18T04:47:15.520Z,75.7
2024-04-18T04:48:15.604Z,75.7
2024-04-18T04:49:15.472Z,75.7
2024-04-18T04:50:15.364Z,75.8
2024-04-18T04:51:15.381Z,75.8
2024-04-18T04:52:15.559Z,75.9
2024-04-18T04:53:15.376Z,75.9
2024-04-18T04:54:15.425Z,75.9
2024-04-18T04:55:15.449Z,75.9
2024-04-18T04:56:15.346Z,75.8
2024-04-18T04:57:15.735Z,75.8
2024-04-18T04:58:15.341Z,75.8
2024-04-18T04:59:15.373Z,75.8
2024-04-18T05:00:16.713Z,75.8
2024-04-18T05:01:15.428Z,75.9
2024-04-18T05:02:15.588Z,75.9
2024-04-18T05:03:15.615Z,76.0
2024-04-18T05:04:15.483Z,76.0
2024-04-18T05:05:15.422Z,76.1
2024-04-18T05:06:15.468Z,76.1
2024-04-18T05:07:15.343Z,76.1
2024-04-18T05:08:15.506Z,76.1
2024-04-18T05:09:16.477Z,76.1
2024-04-18T05:10:15.350Z,76.1
2024-04-18T05:11:15.593Z,76.1
2024-04-18T05:12:15.497Z,76.1
2024-04-18T05:13:15.429Z,76.1
2024-04-18T05:14:16.250Z,76.1
2024-04-18T05:15:15.819Z,76.1
2024-04-18T05:16:15.562Z,76.1
2024-04-18T05:17:15.611Z,76.1
2024-04-18T05:18:15.416Z,76.1
2024-04-18T05:19:15.357Z,76.1
2024-04-18T05:20:15.686Z,76.2
2024-04-18T05:21:18.799Z,76.2
2024-04-18T05:22:15.580Z,76.3
2024-04-18T05:23:15.382Z,76.3
2024-04-18T05:24:15.684Z,76.3
2024-04-18T05:25:15.959Z,76.3
2024-04-18T05:26:16.071Z,76.3
2024-04-18T05:27:16.101Z,76.3
2024-04-18T05:28:16.197Z,76.3
2024-04-18T05:29:15.308Z,76.3
2024-04-18T05:30:15.332Z,76.3
2024-04-18T05:31:15.331Z,76.3
2024-04-18T05:32:15.331Z,76.3
2024-04-18T05:33:15.475Z,76.3
2024-04-18T05:34:15.390Z,76.3
2024-04-18T05:35:15.386Z,76.3
2024-04-18T05:36:15.313Z,76.3
2024-04-18T05:37:15.845Z,76.3
2024-04-18T05:38:15.454Z,76.3
2024-04-18T05:39:15.333Z,76.3
2024-04-18T05:40:15.626Z,76.3
2024-04-18T05:41:16.418Z,76.3
2024-04-18T05:42:15.322Z,76.4
2024-04-18T05:43:15.444Z,76.3
2024-04-18T05:44:15.537Z,76.3
2024-04-18T05:45:15.251Z,76.3
2024-04-18T05:46:15.429Z,76.3
2024-04-18T05:47:15.792Z,76.3
2024-04-18T05:48:15.322Z,76.3
2024-04-18T05:49:15.320Z,76.3
2024-04-18T05:50:15.343Z,76.3
2024-04-18T05:51:15.312Z,76.3
2024-04-18T05:52:15.299Z,76.3
2024-04-18T05:53:15.257Z,76.3
2024-04-18T05:54:15.265Z,76.4
2024-04-18T05:55:15.245Z,76.4
2024-04-18T05:56:15.279Z,76.4
2024-04-18T05:57:15.312Z,76.4
2024-04-18T05:58:15.312Z,76.4
2024-04-18T05:59:15.304Z,76.3
2024-04-18T06:00:15.249Z,76.4
2024-04-18T06:01:15.327Z,76.4
2024-04-18T06:02:16.968Z,76.5
2024-04-18T06:03:15.296Z,76.5
2024-04-18T06:04:15.327Z,76.5
2024-04-18T06:05:15.251Z,76.5
2024-04-18T06:06:15.616Z,76.5
2024-04-18T06:07:15.242Z,76.5
2024-04-18T06:08:15.582Z,76.5
2024-04-18T06:09:15.764Z,76.5
2024-04-18T06:10:15.256Z,76.6
2024-04-18T06:11:15.630Z,76.6
2024-04-18T06:12:15.322Z,76.6
2024-04-18T06:13:15.581Z,76.6
2024-04-18T06:14:15.210Z,76.6
2024-04-18T06:15:15.323Z,76.6
2024-04-18T06:16:15.356Z,76.5
2024-04-18T06:17:15.240Z,76.6
2024-04-18T06:18:15.283Z,76.6
2024-04-18T06:19:15.261Z,76.6
2024-04-18T06:20:15.259Z,76.6
2024-04-18T06:21:15.212Z,76.6
2024-04-18T06:22:15.234Z,76.6
2024-04-18T06:23:16.441Z,76.6
2024-04-18T06:24:15.364Z,76.7
2024-04-18T06:25:15.238Z,76.7
2024-04-18T06:26:15.237Z,76.7
2024-04-18T06:27:15.180Z,76.7
2024-04-18T06:28:15.329Z,76.7
2024-04-18T06:29:15.198Z,76.7
2024-04-18T06:30:15.250Z,76.7
2024-04-18T06:31:15.315Z,76.8
2024-04-18T06:32:15.220Z,76.8
2024-04-18T06:33:15.462Z,76.8
2024-04-18T06:34:15.317Z,76.7
2024-04-18T06:35:15.376Z,76.8
2024-04-18T06:36:15.291Z,76.8
2024-04-18T06:37:15.224Z,76.7
2024-04-18T06:38:15.427Z,76.8
2024-04-18T06:39:15.194Z,76.7
2024-04-18T06:40:15.223Z,76.8
2024-04-18T06:41:15.193Z,76.8
2024-04-18T06:42:15.254Z,76.8
2024-04-18T06:43:15.268Z,76.8
2024-04-18T06:44:16.687Z,76.7
2024-04-18T06:45:15.201Z,76.7
2024-04-18T06:46:15.217Z,76.7
2024-04-18T06:47:15.212Z,76.8
2024-04-18T06:48:15.277Z,76.7
2024-04-18T06:49:15.196Z,76.6
2024-04-18T06:50:15.188Z,76.7
2024-04-18T06:51:15.222Z,76.7
2024-04-18T06:52:15.168Z,76.7
2024-04-18T06:53:15.179Z,76.8
2024-04-18T06:54:15.225Z,76.8
2024-04-18T06:55:15.193Z,76.8
2024-04-18T06:56:15.143Z,76.8
2024-04-18T06:57:15.294Z,76.8
2024-04-18T06:58:15.190Z,76.9
2024-04-18T06:59:15.261Z,76.9
2024-04-18T07:00:15.201Z,76.9
2024-04-18T07:01:15.332Z,76.9
2024-04-18T07:02:15.190Z,76.9
2024-04-18T07:03:15.287Z,76.8
2024-04-18T07:04:15.316Z,76.8
2024-04-18T07:05:17.115Z,76.8
2024-04-18T07:06:15.200Z,76.7
2024-04-18T07:07:15.160Z,76.7
2024-04-18T07:08:15.368Z,76.7
2024-04-18T07:09:15.232Z,76.6
2024-04-18T07:10:15.192Z,76.6
2024-04-18T07:11:15.205Z,76.7
2024-04-18T07:12:15.350Z,76.7
2024-04-18T07:13:15.246Z,76.7
2024-04-18T07:14:15.638Z,76.7
2024-04-18T07:15:15.680Z,76.7
2024-04-18T07:16:15.462Z,76.7
2024-04-18T07:17:15.340Z,76.7
2024-04-18T07:18:15.720Z,76.7
2024-04-18T07:19:15.482Z,76.7
2024-04-18T07:20:15.652Z,76.8
2024-04-18T07:21:15.211Z,76.7
2024-04-18T07:22:15.619Z,76.7
2024-04-18T07:23:15.156Z,76.7
2024-04-18T07:24:16.958Z,76.8
2024-04-18T07:25:15.193Z,76.8
2024-04-18T07:26:15.256Z,76.8
2024-04-18T07:27:15.153Z,76.8
2024-04-18T07:28:15.350Z,76.9
2024-04-18T07:29:15.230Z,76.9
2024-04-18T07:30:15.215Z,76.8
2024-04-18T07:31:15.183Z,76.9
2024-04-18T07:32:15.107Z,76.9
2024-04-18T07:33:15.844Z,76.9
2024-04-18T07:34:15.298Z,76.9
2024-04-18T07:35:15.069Z,76.9
2024-04-18T07:36:15.378Z,76.9
2024-04-18T07:37:15.136Z,76.9
2024-04-18T07:38:15.104Z,76.8
2024-04-18T07:39:15.096Z,76.8
2024-04-18T07:40:15.232Z,76.8
2024-04-18T07:41:15.476Z,76.8
2024-04-18T07:42:15.336Z,76.7
2024-04-18T07:43:15.140Z,76.7
2024-04-18T07:44:15.604Z,76.7
2024-04-18T07:45:15.122Z,76.6
2024-04-18T07:46:15.465Z,76.6
2024-04-18T07:47:15.117Z,76.6
2024-04-18T07:48:15.341Z,76.6
2024-04-18T07:49:15.511Z,76.7
2024-04-18T07:50:15.397Z,76.6
2024-04-18T07:51:15.124Z,76.6
2024-04-18T07:53:15.095Z,76.6
2024-04-18T07:54:15.042Z,76.6
2024-04-18T07:55:15.155Z,76.7
2024-04-18T07:56:15.465Z,76.7
2024-04-18T07:57:15.565Z,76.6
2024-04-18T07:58:15.525Z,76.5
2024-04-18T07:59:15.713Z,76.4
2024-04-18T08:00:16.110Z,76.5
2024-04-18T08:01:16.947Z,76.5
2024-04-18T08:02:17.436Z,76.5
2024-04-18T08:03:16.839Z,76.5
2024-04-18T08:04:35.048Z,76.6
2024-04-18T08:05:17.981Z,76.7
2024-04-18T08:06:17.532Z,76.6
2024-04-18T08:07:17.217Z,76.6
2024-04-18T08:08:17.781Z,76.5
2024-04-18T08:09:17.576Z,76.4
2024-04-18T08:10:18.167Z,76.3
2024-04-18T08:11:40.759Z,76.3
2024-04-18T08:12:24.255Z,76.3
2024-04-18T08:13:18.110Z,76.3
2024-04-18T08:14:19.197Z,76.3
2024-04-18T08:15:18.290Z,76.3
2024-04-18T08:16:15.675Z,76.2
2024-04-18T08:17:15.203Z,76.2
2024-04-18T08:18:15.018Z,76.2
2024-04-18T08:19:15.075Z,76.2
2024-04-18T08:20:15.086Z,76.1
2024-04-18T08:21:15.072Z,76.0
2024-04-18T08:22:15.055Z,75.9
2024-04-18T08:23:15.217Z,75.9
2024-04-18T08:24:15.133Z,75.9
2024-04-18T08:25:15.263Z,75.9
2024-04-18T08:26:15.914Z,75.9
2024-04-18T08:27:15.095Z,75.8
2024-04-18T08:28:15.016Z,75.7
2024-04-18T08:29:15.049Z,75.8
2024-04-18T08:30:15.280Z,75.9
2024-04-18T08:31:15.083Z,75.9
2024-04-18T08:32:15.135Z,76.0
2024-04-18T08:33:15.176Z,76.0
2024-04-18T08:34:18.125Z,75.9
2024-04-18T08:35:15.026Z,75.5
2024-04-18T08:36:15.119Z,75.4
2024-04-18T08:37:15.176Z,75.5
2024-04-18T08:38:15.064Z,75.5
2024-04-18T08:39:15.078Z,75.4
2024-04-18T08:40:15.025Z,75.5
2024-04-18T08:41:15.149Z,75.5
2024-04-18T08:42:16.146Z,75.4
2024-04-18T08:43:15.015Z,75.4
2024-04-18T08:44:15.002Z,75.5
2024-04-18T08:45:15.039Z,75.4
2024-04-18T08:46:14.990Z,75.3
2024-04-18T08:47:16.226Z,75.3
2024-04-18T08:48:19.469Z,75.3
2024-04-18T08:49:16.003Z,75.4
2024-04-18T08:50:16.555Z,75.4
2024-04-18T08:51:15.067Z,75.4
2024-04-18T08:52:14.988Z,75.2
2024-04-18T08:53:15.813Z,75.1
2024-04-18T08:54:15.850Z,75.0
2024-04-18T08:55:15.784Z,75.0
2024-04-18T08:56:14.997Z,75.0
2024-04-18T08:57:15.074Z,74.9
2024-04-18T08:58:14.992Z,74.7
2024-04-18T08:59:15.023Z,74.8
2024-04-18T09:00:14.989Z,74.8
2024-04-18T09:01:15.100Z,74.8
2024-04-18T09:02:15.030Z,74.8
2024-04-18T09:03:15.009Z,74.8
2024-04-18T09:04:15.082Z,74.6
2024-04-18T09:05:14.995Z,74.6
2024-04-18T09:06:15.127Z,74.6
2024-04-18T09:07:14.982Z,74.5
2024-04-18T09:08:17.089Z,74.4
2024-04-18T09:09:15.230Z,74.5
2024-04-18T09:10:14.948Z,74.6
2024-04-18T09:11:15.012Z,74.5
2024-04-18T09:12:14.988Z,74.2
2024-04-18T09:13:15.037Z,74.1
2024-04-18T09:14:14.954Z,74.0
2024-04-18T09:15:15.779Z,74.1
2024-04-18T09:16:15.023Z,74.1
2024-04-18T09:17:14.973Z,73.7
2024-04-18T09:18:15.081Z,73.9
2024-04-18T09:19:14.998Z,73.7
2024-04-18T09:20:15.067Z,73.7
2024-04-18T09:21:15.742Z,73.7
2024-04-18T09:22:17.176Z,73.6
2024-04-18T09:23:15.661Z,73.8
2024-04-18T09:24:15.776Z,73.6
2024-04-18T09:25:15.079Z,73.7
2024-04-18T09:26:14.941Z,73.1
2024-04-18T09:27:15.066Z,73.2
2024-04-18T09:28:14.927Z,73.1
2024-04-18T09:29:16.532Z,73.2
2024-04-18T09:30:15.112Z,73.1
2024-04-18T09:31:17.232Z,72.9
2024-04-18T09:32:14.982Z,72.9
2024-04-18T09:33:15.136Z,72.6
2024-04-18T09:34:15.134Z,72.7
2024-04-18T09:35:15.186Z,72.5
2024-04-18T09:36:14.976Z,72.5
2024-04-18T09:37:15.017Z,72.6
2024-04-18T09:38:14.924Z,73.0
2024-04-18T09:39:18.475Z,73.1
2024-04-18T09:40:14.982Z,73.1
2024-04-18T09:41:14.908Z,73.3
2024-04-18T09:42:14.917Z,73.3
2024-04-18T09:43:14.954Z,73.0
2024-04-18T09:44:14.911Z,73.2
2024-04-18T09:45:15.083Z,73.2
2024-04-18T09:46:15.154Z,72.9
2024-04-18T09:47:14.941Z,72.8
2024-04-18T09:48:15.042Z,72.9
2024-04-18T09:49:15.204Z,72.9
2024-04-18T09:50:17.076Z,73.1
2024-04-18T09:51:14.929Z,73.2
2024-04-18T09:52:14.964Z,73.2
2024-04-18T09:53:14.919Z,73.0
2024-04-18T09:54:14.916Z,73.2
2024-04-18T09:55:14.929Z,73.2
2024-04-18T09:56:14.923Z,72.8
2024-04-18T09:57:15.089Z,72.8
2024-04-18T09:58:14.955Z,72.7
2024-04-18T09:59:14.977Z,72.6
2024-04-18T10:00:14.952Z,72.8
2024-04-18T10:01:15.038Z,72.8
2024-04-18T10:02:15.087Z,72.6
2024-04-18T10:03:14.978Z,72.9
2024-04-18T10:04:15.212Z,73.0
2024-04-18T10:05:14.962Z,73.0
2024-04-18T10:06:17.739Z,73.1
2024-04-18T10:07:14.905Z,73.0
2024-04-18T10:08:15.063Z,72.9
2024-04-18T10:09:15.388Z,73.0
2024-04-18T10:10:15.002Z,73.2
2024-04-18T10:11:18.222Z,73.2
2024-04-18T10:12:15.000Z,73.3
2024-04-18T10:13:16.424Z,73.3
2024-04-18T10:14:14.981Z,73.4
2024-04-18T10:15:14.912Z,73.2
2024-04-18T10:16:14.935Z,73.1
2024-04-18T10:17:15.068Z,73.2
2024-04-18T10:18:15.075Z,73.0
2024-04-18T10:19:15.391Z,72.8
2024-04-18T10:20:15.306Z,72.8
2024-04-18T10:21:14.921Z,72.9
2024-04-18T10:22:23.757Z,72.9
2024-04-18T10:23:14.975Z,72.8
2024-04-18T10:24:14.983Z,72.9
2024-04-18T10:25:14.935Z,72.9
2024-04-18T10:26:14.910Z,73.0
2024-04-18T10:27:14.883Z,72.9
2024-04-18T10:28:14.894Z,72.9
2024-04-18T10:29:14.947Z,73.0
2024-04-18T10:30:15.035Z,73.0
2024-04-18T10:31:15.547Z,73.0
2024-04-18T10:32:18.283Z,72.9
2024-04-18T10:33:15.251Z,72.9
2024-04-18T10:34:15.130Z,73.0
2024-04-18T10:35:14.946Z,73.1
2024-04-18T10:36:15.027Z,72.9
2024-04-18T10:37:15.153Z,72.7
2024-04-18T10:38:15.064Z,72.8
2024-04-18T10:39:15.564Z,72.8
2024-04-18T10:40:14.981Z,72.7
2024-04-18T10:41:14.945Z,72.5
2024-04-18T10:42:14.875Z,72.4
2024-04-18T10:43:16.585Z,72.5
2024-04-18T10:44:14.879Z,72.5
2024-04-18T10:45:14.957Z,72.5
2024-04-18T10:46:15.007Z,72.5
2024-04-18T10:47:14.905Z,72.5
2024-04-18T10:48:15.147Z,72.4
2024-04-18T10:49:14.925Z,72.5
2024-04-18T10:50:14.901Z,72.6
2024-04-18T10:51:14.870Z,72.4
2024-04-18T10:52:16.269Z,72.3
2024-04-18T10:53:18.566Z,72.3
2024-04-18T10:54:14.988Z,72.3
2024-04-18T10:55:14.984Z,72.2
2024-04-18T10:56:14.933Z,72.1
2024-04-18T10:57:15.177Z,72.1
2024-04-18T10:58:14.858Z,72.1
2024-04-18T10:59:15.151Z,72.0
2024-04-18T11:00:15.221Z,71.9
2024-04-18T11:01:15.225Z,71.8
2024-04-18T11:02:15.118Z,71.8
2024-04-18T11:03:14.881Z,71.8
2024-04-18T11:04:15.105Z,71.6
2024-04-18T11:05:14.866Z,71.7
2024-04-18T11:06:14.912Z,71.5
2024-04-18T11:07:14.848Z,71.5
2024-04-18T11:08:14.851Z,71.5
2024-04-18T11:09:14.842Z,71.3
2024-04-18T11:10:14.844Z,71.4
2024-04-18T11:11:14.999Z,71.4
2024-04-18T11:12:15.324Z,71.5
2024-04-18T11:13:17.059Z,71.5
2024-04-18T11:14:15.062Z,71.6
2024-04-18T11:15:15.782Z,71.6
2024-04-18T11:16:14.938Z,71.6
2024-04-18T11:17:14.847Z,71.7
2024-04-18T11:18:14.964Z,71.5
2024-04-18T11:19:14.905Z,71.6
2024-04-18T11:20:14.916Z,71.6
2024-04-18T11:21:14.937Z,71.7
2024-04-18T11:22:14.799Z,71.8
2024-04-18T11:23:16.024Z,71.7
2024-04-18T11:24:14.852Z,71.7
2024-04-18T11:25:14.860Z,71.9
2024-04-18T11:26:15.148Z,71.9
2024-04-18T11:27:14.848Z,72.0
2024-04-18T11:28:16.013Z,72.1
2024-04-18T11:29:15.795Z,72.1
2024-04-18T11:30:15.011Z,72.1
2024-04-18T11:31:14.916Z,72.1
2024-04-18T11:32:14.858Z,71.9
2024-04-18T11:33:15.461Z,72.0
2024-04-18T11:34:18.350Z,72.1
2024-04-18T11:35:17.300Z,72.1
2024-04-18T11:36:14.886Z,72.1
2024-04-18T11:37:14.956Z,71.8
2024-04-18T11:38:14.765Z,71.7
2024-04-18T11:39:14.952Z,71.1
2024-04-18T11:40:14.799Z,71.3
2024-04-18T11:41:14.882Z,71.4
2024-04-18T11:42:15.742Z,71.3
2024-04-18T11:43:14.840Z,71.1
2024-04-18T11:44:14.764Z,70.4
2024-04-18T11:45:14.882Z,71.0
2024-04-18T11:46:14.826Z,71.1
2024-04-18T11:47:14.807Z,71.2
2024-04-18T11:48:14.873Z,71.1
2024-04-18T11:49:15.094Z,71.0
2024-04-18T11:50:14.772Z,71.0
2024-04-18T11:51:15.035Z,71.0
2024-04-18T11:52:15.244Z,71.0
2024-04-18T11:53:14.842Z,71.1
2024-04-18T11:54:15.970Z,71.1
2024-04-18T11:55:14.782Z,71.0
2024-04-18T11:56:14.795Z,71.0
2024-04-18T11:57:14.981Z,70.8
2024-04-18T11:58:14.800Z,71.0
2024-04-18T11:59:14.759Z,71.0
2024-04-18T12:00:14.819Z,71.1
2024-04-18T12:01:14.821Z,71.0
2024-04-18T12:02:14.740Z,71.0
2024-04-18T12:03:14.797Z,71.0
2024-04-18T12:04:14.867Z,71.0
2024-04-18T12:05:14.807Z,71.0
2024-04-18T12:06:14.914Z,71.0
2024-04-18T12:07:14.776Z,71.0
2024-04-18T12:08:14.712Z,71.0
2024-04-18T12:09:14.763Z,71.0
2024-04-18T12:10:14.723Z,71.0
2024-04-18T12:11:14.957Z,71.0
2024-04-18T12:12:14.801Z,71.0
2024-04-18T12:13:14.865Z,71.0
2024-04-18T12:14:14.717Z,71.0
2024-04-18T12:15:15.960Z,70.8
2024-04-18T12:16:14.807Z,70.1
2024-04-18T12:17:14.734Z,70.4
2024-04-18T12:18:14.730Z,70.6
2024-04-18T12:19:14.695Z,70.5
2024-04-18T12:20:14.744Z,70.4
2024-04-18T12:21:14.807Z,70.5
2024-04-18T12:22:14.670Z,70.4
2024-04-18T12:23:14.695Z,70.4
2024-04-18T12:24:14.883Z,70.5
2024-04-18T12:25:14.719Z,70.6
2024-04-18T12:26:14.767Z,70.7
2024-04-18T12:27:14.721Z,70.8
2024-04-18T12:28:14.709Z,70.8
2024-04-18T12:29:14.706Z,70.6
2024-04-18T12:30:14.686Z,70.5
2024-04-18T12:31:14.711Z,70.3
2024-04-18T12:32:14.670Z,70.2
2024-04-18T12:33:14.695Z,69.8
2024-04-18T12:34:14.667Z,70.1
2024-04-18T12:35:14.732Z,70.1
2024-04-18T12:36:16.394Z,70.1
2024-04-18T12:37:14.714Z,70.1
2024-04-18T12:38:14.648Z,70.2
2024-04-18T12:39:14.703Z,70.3
2024-04-18T12:40:14.693Z,70.2
2024-04-18T12:41:14.673Z,70.0
2024-04-18T12:42:14.666Z,69.9
2024-04-18T12:43:14.735Z,69.9
2024-04-18T12:44:14.694Z,70.1
2024-04-18T12:45:14.706Z,70.1
2024-04-18T12:46:18.643Z,70.0
2024-04-18T12:47:14.868Z,69.9
2024-04-18T12:48:14.881Z,69.7
2024-04-18T12:49:14.982Z,69.7
2024-04-18T12:50:14.749Z,69.3
2024-04-18T12:51:14.607Z,69.3
2024-04-18T12:52:14.687Z,69.3
2024-04-18T12:53:14.674Z,69.1
2024-04-18T12:54:14.690Z,69.1
2024-04-18T12:55:14.820Z,69.1
2024-04-18T12:56:14.715Z,68.5
2024-04-18T12:57:16.662Z,68.6
2024-04-18T12:58:14.815Z,68.5
2024-04-18T12:59:14.653Z,68.6
2024-04-18T13:00:14.666Z,68.8
2024-04-18T13:01:14.784Z,68.9
2024-04-18T13:02:14.689Z,69.0
2024-04-18T13:03:14.703Z,68.9
2024-04-18T13:04:14.734Z,68.7
2024-04-18T13:05:14.683Z,67.7
2024-04-18T13:06:14.690Z,67.0
2024-04-18T13:07:14.759Z,66.8
2024-04-18T13:08:14.611Z,67.1
2024-04-18T13:09:14.717Z,66.6
2024-04-18T13:10:14.701Z,67.1
2024-04-18T13:11:14.659Z,67.4
2024-04-18T13:12:14.634Z,67.5
2024-04-18T13:13:14.755Z,67.3
2024-04-18T13:14:14.640Z,67.5
2024-04-18T13:15:14.739Z,67.7
2024-04-18T13:16:14.703Z,67.9
2024-04-18T13:17:14.806Z,67.6
2024-04-18T13:18:16.773Z,67.8
2024-04-18T13:19:14.617Z,67.8